sensor_id;sensor_type;location;lat;lon;timestamp;temperature;humidity
45066;DHT22;30830;53.704;10.004;2022-11-20T00:02:17;0.90;99.90
45066;DHT22;30830;53.704;10.004;2022-11-20T00:04:43;0.90;99.90
45066;DHT22;30830;53.704;10.004;2022-11-20T00:07:08;0.90;99.90
45066;DHT22;30830;53.704;10.004;2022-11-20T00:09:34;0.90;99.90
45066;DHT22;30830;53.704;10.004;2022-11-20T00:11:59;0.80;99.90
45066;DHT22;30830;53.704;10.004;2022-11-20T00:14:25;0.90;99.90
45066;DHT22;30830;53.704;10.004;2022-11-20T00:16:50;0.90;99.90
45066;DHT22;30830;53.704;10.004;2022-11-20T00:19:16;0.90;99.90
45066;DHT22;30830;53.704;10.004;2022-11-20T00:21:42;0.90;99.90
45066;DHT22;30830;53.704;10.004;2022-11-20T00:24:08;0.80;99.90
45066;DHT22;30830;53.704;10.004;2022-11-20T00:26:35;0.90;99.90
45066;DHT22;30830;53.704;10.004;2022-11-20T00:29:01;0.90;99.90
45066;DHT22;30830;53.704;10.004;2022-11-20T00:31:28;0.80;99.90
45066;DHT22;30830;53.704;10.004;2022-11-20T00:33:54;0.80;99.90
45066;DHT22;30830;53.704;10.004;2022-11-20T00:36:22;0.80;99.90
45066;DHT22;30830;53.704;10.004;2022-11-20T00:38:52;0.80;99.90
45066;DHT22;30830;53.704;10.004;2022-11-20T00:41:18;0.80;99.90
45066;DHT22;30830;53.704;10.004;2022-11-20T00:43:43;0.80;99.90
45066;DHT22;30830;53.704;10.004;2022-11-20T00:48:35;0.80;99.90
45066;DHT22;30830;53.704;10.004;2022-11-20T00:51:01;0.80;99.90
45066;DHT22;30830;53.704;10.004;2022-11-20T00:53:27;0.80;99.90
45066;DHT22;30830;53.704;10.004;2022-11-20T00:56:01;0.80;99.90
45066;DHT22;30830;53.704;10.004;2022-11-20T00:58:34;0.80;99.90
45066;DHT22;30830;53.704;10.004;2022-11-20T01:01:05;0.80;99.90
45066;DHT22;30830;53.704;10.004;2022-11-20T01:03:35;0.80;99.90
45066;DHT22;30830;53.704;10.004;2022-11-20T01:06:10;0.80;99.90
45066;DHT22;30830;53.704;10.004;2022-11-20T01:08:37;0.80;99.90
45066;DHT22;30830;53.704;10.004;2022-11-20T01:11:07;0.80;99.90
45066;DHT22;30830;53.704;10.004;2022-11-20T01:13:33;0.80;99.90
45066;DHT22;30830;53.704;10.004;2022-11-20T01:16:07;0.80;99.90
45066;DHT22;30830;53.704;10.004;2022-11-20T01:18:34;0.80;99.90
45066;DHT22;30830;53.704;10.004;2022-11-20T01:21:04;0.80;99.90
45066;DHT22;30830;53.704;10.004;2022-11-20T01:23:35;0.80;99.90
45066;DHT22;30830;53.704;10.004;2022-11-20T01:26:02;0.80;99.90
45066;DHT22;30830;53.704;10.004;2022-11-20T01:28:28;0.80;99.90
45066;DHT22;30830;53.704;10.004;2022-11-20T01:30:54;0.80;99.90
45066;DHT22;30830;53.704;10.004;2022-11-20T01:33:20;0.80;99.90
45066;DHT22;30830;53.704;10.004;2022-11-20T01:35:45;0.80;99.90
45066;DHT22;30830;53.704;10.004;2022-11-20T01:38:11;0.80;99.90
45066;DHT22;30830;53.704;10.004;2022-11-20T01:40:36;0.80;99.90
45066;DHT22;30830;53.704;10.004;2022-11-20T01:43:14;0.80;99.90
45066;DHT22;30830;53.704;10.004;2022-11-20T01:45:55;0.80;99.90
45066;DHT22;30830;53.704;10.004;2022-11-20T01:48:23;0.70;99.90
45066;DHT22;30830;53.704;10.004;2022-11-20T01:50:51;0.70;99.90
45066;DHT22;30830;53.704;10.004;2022-11-20T01:53:20;0.80;99.90
45066;DHT22;30830;53.704;10.004;2022-11-20T01:55:52;0.80;99.90
45066;DHT22;30830;53.704;10.004;2022-11-20T01:58:21;0.70;99.90
45066;DHT22;30830;53.704;10.004;2022-11-20T02:00:48;0.70;99.90
45066;DHT22;30830;53.704;10.004;2022-11-20T02:03:16;0.80;99.90
45066;DHT22;30830;53.704;10.004;2022-11-20T02:05:51;0.70;99.90
45066;DHT22;30830;53.704;10.004;2022-11-20T02:08:20;0.70;99.90
45066;DHT22;30830;53.704;10.004;2022-11-20T02:10:46;0.70;99.90
45066;DHT22;30830;53.704;10.004;2022-11-20T02:13:12;0.70;99.90
45066;DHT22;30830;53.704;10.004;2022-11-20T02:15:56;0.70;99.90
45066;DHT22;30830;53.704;10.004;2022-11-20T02:18:22;0.70;99.90
45066;DHT22;30830;53.704;10.004;2022-11-20T02:20:52;0.80;99.90
45066;DHT22;30830;53.704;10.004;2022-11-20T02:23:26;0.70;99.90
45066;DHT22;30830;53.704;10.004;2022-11-20T02:25:55;0.70;99.90
45066;DHT22;30830;53.704;10.004;2022-11-20T02:28:23;0.70;99.90
45066;DHT22;30830;53.704;10.004;2022-11-20T02:30:49;0.70;99.90
45066;DHT22;30830;53.704;10.004;2022-11-20T02:33:15;0.70;99.90
45066;DHT22;30830;53.704;10.004;2022-11-20T02:35:43;0.70;99.90
45066;DHT22;30830;53.704;10.004;2022-11-20T02:38:08;0.70;99.90
45066;DHT22;30830;53.704;10.004;2022-11-20T02:40:35;0.70;99.90
45066;DHT22;30830;53.704;10.004;2022-11-20T02:43:00;0.70;99.90
45066;DHT22;30830;53.704;10.004;2022-11-20T02:45:26;0.70;99.90
45066;DHT22;30830;53.704;10.004;2022-11-20T02:47:52;0.70;99.90
45066;DHT22;30830;53.704;10.004;2022-11-20T02:50:17;0.70;99.90
45066;DHT22;30830;53.704;10.004;2022-11-20T02:52:43;0.70;99.90
45066;DHT22;30830;53.704;10.004;2022-11-20T02:55:09;0.70;99.90
45066;DHT22;30830;53.704;10.004;2022-11-20T02:57:36;0.70;99.90
45066;DHT22;30830;53.704;10.004;2022-11-20T03:00:03;0.70;99.90
45066;DHT22;30830;53.704;10.004;2022-11-20T03:02:30;0.70;99.90
45066;DHT22;30830;53.704;10.004;2022-11-20T03:04:56;0.60;99.90
45066;DHT22;30830;53.704;10.004;2022-11-20T03:07:21;0.60;99.90
45066;DHT22;30830;53.704;10.004;2022-11-20T03:09:47;0.60;99.90
45066;DHT22;30830;53.704;10.004;2022-11-20T03:12:13;0.60;99.90
45066;DHT22;30830;53.704;10.004;2022-11-20T03:14:39;0.60;99.90
45066;DHT22;30830;53.704;10.004;2022-11-20T03:17:04;0.60;99.90
45066;DHT22;30830;53.704;10.004;2022-11-20T03:19:30;0.60;99.90
45066;DHT22;30830;53.704;10.004;2022-11-20T03:21:56;0.60;99.90
45066;DHT22;30830;53.704;10.004;2022-11-20T03:24:21;0.70;99.90
45066;DHT22;30830;53.704;10.004;2022-11-20T03:26:47;0.60;99.90
45066;DHT22;30830;53.704;10.004;2022-11-20T03:29:13;0.60;99.90
45066;DHT22;30830;53.704;10.004;2022-11-20T03:31:40;0.60;99.90
45066;DHT22;30830;53.704;10.004;2022-11-20T03:34:07;0.70;99.90
45066;DHT22;30830;53.704;10.004;2022-11-20T03:36:33;0.70;99.90
45066;DHT22;30830;53.704;10.004;2022-11-20T03:38:59;0.70;99.90
45066;DHT22;30830;53.704;10.004;2022-11-20T03:41:29;0.70;99.90
45066;DHT22;30830;53.704;10.004;2022-11-20T03:44:01;0.70;99.90
45066;DHT22;30830;53.704;10.004;2022-11-20T03:46:27;0.60;99.90
45066;DHT22;30830;53.704;10.004;2022-11-20T03:48:53;0.70;99.90
45066;DHT22;30830;53.704;10.004;2022-11-20T03:51:24;0.60;99.90
45066;DHT22;30830;53.704;10.004;2022-11-20T03:53:52;0.60;99.90
45066;DHT22;30830;53.704;10.004;2022-11-20T03:56:21;0.60;99.90
45066;DHT22;30830;53.704;10.004;2022-11-20T03:58:48;0.60;99.90
45066;DHT22;30830;53.704;10.004;2022-11-20T04:01:19;0.60;99.90
45066;DHT22;30830;53.704;10.004;2022-11-20T04:03:45;0.60;99.90
45066;DHT22;30830;53.704;10.004;2022-11-20T04:08:39;0.60;99.90
45066;DHT22;30830;53.704;10.004;2022-11-20T04:11:15;0.60;99.90
45066;DHT22;30830;53.704;10.004;2022-11-20T04:13:42;0.60;99.90
45066;DHT22;30830;53.704;10.004;2022-11-20T04:16:09;0.60;99.90
45066;DHT22;30830;53.704;10.004;2022-11-20T04:18:35;0.60;99.90
45066;DHT22;30830;53.704;10.004;2022-11-20T04:21:02;0.60;99.90
45066;DHT22;30830;53.704;10.004;2022-11-20T04:23:27;0.60;99.90
45066;DHT22;30830;53.704;10.004;2022-11-20T04:25:53;0.60;99.90
45066;DHT22;30830;53.704;10.004;2022-11-20T04:28:19;0.60;99.90
45066;DHT22;30830;53.704;10.004;2022-11-20T04:30:44;0.50;99.90
45066;DHT22;30830;53.704;10.004;2022-11-20T04:33:11;0.50;99.90
45066;DHT22;30830;53.704;10.004;2022-11-20T04:35:37;0.60;99.90
45066;DHT22;30830;53.704;10.004;2022-11-20T04:38:03;0.60;99.90
45066;DHT22;30830;53.704;10.004;2022-11-20T04:40:28;0.60;99.90
45066;DHT22;30830;53.704;10.004;2022-11-20T04:42:54;0.60;99.90
45066;DHT22;30830;53.704;10.004;2022-11-20T04:45:22;0.50;99.90
45066;DHT22;30830;53.704;10.004;2022-11-20T04:47:48;0.60;99.90
45066;DHT22;30830;53.704;10.004;2022-11-20T04:50:13;0.50;99.90
45066;DHT22;30830;53.704;10.004;2022-11-20T04:52:39;0.50;99.90
45066;DHT22;30830;53.704;10.004;2022-11-20T04:55:05;0.50;99.90
45066;DHT22;30830;53.704;10.004;2022-11-20T04:57:31;0.50;99.90
45066;DHT22;30830;53.704;10.004;2022-11-20T04:59:56;0.50;99.90
45066;DHT22;30830;53.704;10.004;2022-11-20T05:02:22;0.50;99.90
45066;DHT22;30830;53.704;10.004;2022-11-20T05:04:47;0.50;99.90
45066;DHT22;30830;53.704;10.004;2022-11-20T05:07:13;0.50;99.90
45066;DHT22;30830;53.704;10.004;2022-11-20T05:09:38;0.50;99.90
45066;DHT22;30830;53.704;10.004;2022-11-20T05:12:04;0.50;99.90
45066;DHT22;30830;53.704;10.004;2022-11-20T05:14:30;0.40;99.90
45066;DHT22;30830;53.704;10.004;2022-11-20T05:16:55;0.40;99.90
45066;DHT22;30830;53.704;10.004;2022-11-20T05:19:21;0.50;99.90
45066;DHT22;30830;53.704;10.004;2022-11-20T05:21:46;0.50;99.90
45066;DHT22;30830;53.704;10.004;2022-11-20T05:24:12;0.40;99.90
45066;DHT22;30830;53.704;10.004;2022-11-20T05:26:37;0.40;99.90
45066;DHT22;30830;53.704;10.004;2022-11-20T05:29:03;0.40;99.90
45066;DHT22;30830;53.704;10.004;2022-11-20T05:31:29;0.40;99.90
45066;DHT22;30830;53.704;10.004;2022-11-20T05:33:55;0.40;99.90
45066;DHT22;30830;53.704;10.004;2022-11-20T05:36:21;0.40;99.90
45066;DHT22;30830;53.704;10.004;2022-11-20T05:38:47;0.40;99.90
45066;DHT22;30830;53.704;10.004;2022-11-20T05:41:18;0.40;99.90
45066;DHT22;30830;53.704;10.004;2022-11-20T05:43:45;0.40;99.90
45066;DHT22;30830;53.704;10.004;2022-11-20T05:46:13;0.40;99.90
45066;DHT22;30830;53.704;10.004;2022-11-20T05:48:40;0.40;99.90
45066;DHT22;30830;53.704;10.004;2022-11-20T05:51:08;0.40;99.90
45066;DHT22;30830;53.704;10.004;2022-11-20T05:53:35;0.50;99.90
45066;DHT22;30830;53.704;10.004;2022-11-20T05:58:27;0.40;99.90
45066;DHT22;30830;53.704;10.004;2022-11-20T06:00:53;0.40;99.90
45066;DHT22;30830;53.704;10.004;2022-11-20T06:03:19;0.40;99.90
45066;DHT22;30830;53.704;10.004;2022-11-20T06:05:44;0.30;99.90
45066;DHT22;30830;53.704;10.004;2022-11-20T06:08:10;0.30;99.90
45066;DHT22;30830;53.704;10.004;2022-11-20T06:10:35;0.30;99.90
45066;DHT22;30830;53.704;10.004;2022-11-20T06:13:01;0.30;99.90
45066;DHT22;30830;53.704;10.004;2022-11-20T06:15:26;0.30;99.90
45066;DHT22;30830;53.704;10.004;2022-11-20T06:17:55;0.30;99.90
45066;DHT22;30830;53.704;10.004;2022-11-20T06:20:21;0.30;99.90
45066;DHT22;30830;53.704;10.004;2022-11-20T06:22:47;0.20;99.90
45066;DHT22;30830;53.704;10.004;2022-11-20T06:25:13;0.20;99.90
45066;DHT22;30830;53.704;10.004;2022-11-20T06:27:39;0.20;99.90
45066;DHT22;30830;53.704;10.004;2022-11-20T06:30:05;0.20;99.90
45066;DHT22;30830;53.704;10.004;2022-11-20T06:32:30;0.20;99.90
45066;DHT22;30830;53.704;10.004;2022-11-20T06:34:56;0.30;99.90
45066;DHT22;30830;53.704;10.004;2022-11-20T06:37:22;0.20;99.90
45066;DHT22;30830;53.704;10.004;2022-11-20T06:39:47;0.20;99.90
45066;DHT22;30830;53.704;10.004;2022-11-20T06:42:13;0.30;99.90
45066;DHT22;30830;53.704;10.004;2022-11-20T06:44:38;0.30;99.90
45066;DHT22;30830;53.704;10.004;2022-11-20T06:47:04;0.30;99.90
45066;DHT22;30830;53.704;10.004;2022-11-20T06:49:29;0.30;99.90
45066;DHT22;30830;53.704;10.004;2022-11-20T06:51:55;0.30;99.90
45066;DHT22;30830;53.704;10.004;2022-11-20T06:54:20;0.30;99.90
45066;DHT22;30830;53.704;10.004;2022-11-20T06:56:49;0.30;99.90
45066;DHT22;30830;53.704;10.004;2022-11-20T06:59:14;0.30;99.90
45066;DHT22;30830;53.704;10.004;2022-11-20T07:01:40;0.30;99.90
45066;DHT22;30830;53.704;10.004;2022-11-20T07:04:05;0.30;99.90
45066;DHT22;30830;53.704;10.004;2022-11-20T07:06:31;0.30;99.90
45066;DHT22;30830;53.704;10.004;2022-11-20T07:08:57;0.40;99.90
45066;DHT22;30830;53.704;10.004;2022-11-20T07:11:23;0.30;99.90
45066;DHT22;30830;53.704;10.004;2022-11-20T07:13:49;0.40;99.90
45066;DHT22;30830;53.704;10.004;2022-11-20T07:16:15;0.40;99.90
45066;DHT22;30830;53.704;10.004;2022-11-20T07:18:40;0.40;99.90
45066;DHT22;30830;53.704;10.004;2022-11-20T07:21:07;0.40;99.90
45066;DHT22;30830;53.704;10.004;2022-11-20T07:23:34;0.40;99.90
45066;DHT22;30830;53.704;10.004;2022-11-20T07:26:04;0.40;99.90
45066;DHT22;30830;53.704;10.004;2022-11-20T07:28:30;0.40;99.90
45066;DHT22;30830;53.704;10.004;2022-11-20T07:30:56;0.40;99.90
45066;DHT22;30830;53.704;10.004;2022-11-20T07:33:21;0.40;99.90
45066;DHT22;30830;53.704;10.004;2022-11-20T07:35:47;0.50;99.90
45066;DHT22;30830;53.704;10.004;2022-11-20T07:38:12;0.50;99.90
45066;DHT22;30830;53.704;10.004;2022-11-20T07:40:38;0.50;99.90
45066;DHT22;30830;53.704;10.004;2022-11-20T07:43:03;0.50;99.90
45066;DHT22;30830;53.704;10.004;2022-11-20T07:45:29;0.50;99.90
45066;DHT22;30830;53.704;10.004;2022-11-20T07:47:54;0.50;99.90
45066;DHT22;30830;53.704;10.004;2022-11-20T07:50:20;0.50;99.90
45066;DHT22;30830;53.704;10.004;2022-11-20T07:52:46;0.50;99.90
45066;DHT22;30830;53.704;10.004;2022-11-20T07:55:12;0.60;99.90
45066;DHT22;30830;53.704;10.004;2022-11-20T07:57:38;0.60;99.90
45066;DHT22;30830;53.704;10.004;2022-11-20T08:00:04;0.60;99.90
45066;DHT22;30830;53.704;10.004;2022-11-20T08:02:30;0.60;99.90
45066;DHT22;30830;53.704;10.004;2022-11-20T08:04:56;0.60;99.90
45066;DHT22;30830;53.704;10.004;2022-11-20T08:07:21;0.70;99.90
45066;DHT22;30830;53.704;10.004;2022-11-20T08:09:47;0.60;99.90
45066;DHT22;30830;53.704;10.004;2022-11-20T08:12:18;0.70;99.90
45066;DHT22;30830;53.704;10.004;2022-11-20T08:15:03;0.70;99.90
45066;DHT22;30830;53.704;10.004;2022-11-20T08:17:29;0.70;99.90
45066;DHT22;30830;53.704;10.004;2022-11-20T08:19:55;0.70;99.90
45066;DHT22;30830;53.704;10.004;2022-11-20T08:22:20;0.80;99.90
45066;DHT22;30830;53.704;10.004;2022-11-20T08:24:46;0.80;99.90
45066;DHT22;30830;53.704;10.004;2022-11-20T08:27:12;0.70;99.90
45066;DHT22;30830;53.704;10.004;2022-11-20T08:29:37;0.70;99.90
45066;DHT22;30830;53.704;10.004;2022-11-20T08:32:03;0.80;99.90
45066;DHT22;30830;53.704;10.004;2022-11-20T08:34:28;0.70;99.90
45066;DHT22;30830;53.704;10.004;2022-11-20T08:36:54;0.70;99.90
45066;DHT22;30830;53.704;10.004;2022-11-20T08:39:19;0.70;99.90
45066;DHT22;30830;53.704;10.004;2022-11-20T08:41:45;0.70;99.90
45066;DHT22;30830;53.704;10.004;2022-11-20T08:44:11;0.70;99.90
45066;DHT22;30830;53.704;10.004;2022-11-20T08:46:38;0.70;99.90
45066;DHT22;30830;53.704;10.004;2022-11-20T08:49:08;0.70;99.90
45066;DHT22;30830;53.704;10.004;2022-11-20T08:51:34;0.70;99.90
45066;DHT22;30830;53.704;10.004;2022-11-20T08:54:00;0.70;99.90
45066;DHT22;30830;53.704;10.004;2022-11-20T08:56:25;0.70;99.90
45066;DHT22;30830;53.704;10.004;2022-11-20T08:58:51;0.70;99.90
45066;DHT22;30830;53.704;10.004;2022-11-20T09:01:18;0.70;99.90
45066;DHT22;30830;53.704;10.004;2022-11-20T09:03:43;0.80;99.90
45066;DHT22;30830;53.704;10.004;2022-11-20T09:06:09;0.80;99.90
45066;DHT22;30830;53.704;10.004;2022-11-20T09:08:35;0.80;99.90
45066;DHT22;30830;53.704;10.004;2022-11-20T09:11:02;0.90;99.90
45066;DHT22;30830;53.704;10.004;2022-11-20T09:13:29;0.90;99.90
45066;DHT22;30830;53.704;10.004;2022-11-20T09:16:03;1.00;99.90
45066;DHT22;30830;53.704;10.004;2022-11-20T09:18:29;1.00;99.90
45066;DHT22;30830;53.704;10.004;2022-11-20T09:21:00;1.00;99.90
45066;DHT22;30830;53.704;10.004;2022-11-20T09:23:27;1.10;99.90
45066;DHT22;30830;53.704;10.004;2022-11-20T09:25:53;1.10;99.90
45066;DHT22;30830;53.704;10.004;2022-11-20T09:28:21;1.10;99.90
45066;DHT22;30830;53.704;10.004;2022-11-20T09:30:46;1.10;99.90
45066;DHT22;30830;53.704;10.004;2022-11-20T09:33:12;1.20;99.90
45066;DHT22;30830;53.704;10.004;2022-11-20T09:35:38;1.20;99.90
45066;DHT22;30830;53.704;10.004;2022-11-20T09:38:07;1.20;99.90
45066;DHT22;30830;53.704;10.004;2022-11-20T09:40:34;1.20;99.90
45066;DHT22;30830;53.704;10.004;2022-11-20T09:43:10;1.20;99.90
45066;DHT22;30830;53.704;10.004;2022-11-20T09:56:34;1.10;99.90
45066;DHT22;30830;53.704;10.004;2022-11-20T09:59:05;1.10;99.90
45066;DHT22;30830;53.704;10.004;2022-11-20T10:01:35;1.10;99.90
45066;DHT22;30830;53.704;10.004;2022-11-20T10:04:14;1.10;99.90
45066;DHT22;30830;53.704;10.004;2022-11-20T10:06:44;1.10;99.90
45066;DHT22;30830;53.704;10.004;2022-11-20T10:25:18;1.20;99.90
45066;DHT22;30830;53.704;10.004;2022-11-20T10:28:24;1.20;99.90
45066;DHT22;30830;53.704;10.004;2022-11-20T10:31:03;1.20;99.90
45066;DHT22;30830;53.704;10.004;2022-11-20T10:33:33;1.30;99.90
45066;DHT22;30830;53.704;10.004;2022-11-20T10:38:38;1.40;99.90
45066;DHT22;30830;53.704;10.004;2022-11-20T10:41:06;1.30;99.90
45066;DHT22;30830;53.704;10.004;2022-11-20T10:44:09;1.30;99.90
45066;DHT22;30830;53.704;10.004;2022-11-20T10:46:45;1.30;99.90
45066;DHT22;30830;53.704;10.004;2022-11-20T10:49:16;1.30;99.90
45066;DHT22;30830;53.704;10.004;2022-11-20T10:51:59;1.30;99.90
45066;DHT22;30830;53.704;10.004;2022-11-20T10:54:56;1.30;99.90
45066;DHT22;30830;53.704;10.004;2022-11-20T11:00:19;1.30;99.90
45066;DHT22;30830;53.704;10.004;2022-11-20T11:02:49;1.30;99.90
45066;DHT22;30830;53.704;10.004;2022-11-20T11:07:57;1.40;99.90
45066;DHT22;30830;53.704;10.004;2022-11-20T11:10:47;1.50;99.90
45066;DHT22;30830;53.704;10.004;2022-11-20T11:13:23;1.60;99.90
45066;DHT22;30830;53.704;10.004;2022-11-20T11:15:49;1.60;99.90
45066;DHT22;30830;53.704;10.004;2022-11-20T11:18:32;1.60;99.90
45066;DHT22;30830;53.704;10.004;2022-11-20T11:21:01;1.70;99.90
45066;DHT22;30830;53.704;10.004;2022-11-20T11:23:34;1.70;99.90
45066;DHT22;30830;53.704;10.004;2022-11-20T11:26:03;1.70;99.90
45066;DHT22;30830;53.704;10.004;2022-11-20T11:28:29;1.70;99.90
45066;DHT22;30830;53.704;10.004;2022-11-20T11:30:55;1.70;99.90
45066;DHT22;30830;53.704;10.004;2022-11-20T11:33:29;1.70;99.90
45066;DHT22;30830;53.704;10.004;2022-11-20T11:38:41;1.90;99.90
45066;DHT22;30830;53.704;10.004;2022-11-20T11:41:17;2.00;99.90
45066;DHT22;30830;53.704;10.004;2022-11-20T11:43:56;2.10;99.90
45066;DHT22;30830;53.704;10.004;2022-11-20T11:46:52;2.20;99.90
45066;DHT22;30830;53.704;10.004;2022-11-20T11:49:19;2.20;99.90
45066;DHT22;30830;53.704;10.004;2022-11-20T11:52:15;2.20;99.90
45066;DHT22;30830;53.704;10.004;2022-11-20T11:54:53;2.20;99.90
45066;DHT22;30830;53.704;10.004;2022-11-20T11:57:26;2.20;99.90
45066;DHT22;30830;53.704;10.004;2022-11-20T12:00:00;2.10;99.90
45066;DHT22;30830;53.704;10.004;2022-11-20T12:02:31;2.20;99.90
45066;DHT22;30830;53.704;10.004;2022-11-20T12:05:10;2.20;99.90
45066;DHT22;30830;53.704;10.004;2022-11-20T12:08:01;2.30;99.90
45066;DHT22;30830;53.704;10.004;2022-11-20T12:10:53;2.20;99.90
45066;DHT22;30830;53.704;10.004;2022-11-20T12:15:51;2.20;99.90
45066;DHT22;30830;53.704;10.004;2022-11-20T12:18:20;2.20;99.90
45066;DHT22;30830;53.704;10.004;2022-11-20T12:30:00;2.00;99.90
45066;DHT22;30830;53.704;10.004;2022-11-20T12:35:58;2.00;99.90
45066;DHT22;30830;53.704;10.004;2022-11-20T12:53:23;2.00;99.90
45066;DHT22;30830;53.704;10.004;2022-11-20T12:59:12;2.10;99.90
45066;DHT22;30830;53.704;10.004;2022-11-20T13:01:55;2.10;99.90
45066;DHT22;30830;53.704;10.004;2022-11-20T13:07:05;2.10;99.90
45066;DHT22;30830;53.704;10.004;2022-11-20T13:09:33;2.10;99.90
45066;DHT22;30830;53.704;10.004;2022-11-20T13:17:22;2.10;99.90
45066;DHT22;30830;53.704;10.004;2022-11-20T13:19:53;2.10;99.90
45066;DHT22;30830;53.704;10.004;2022-11-20T13:22:29;2.00;99.90
45066;DHT22;30830;53.704;10.004;2022-11-20T13:25:09;2.10;99.90
45066;DHT22;30830;53.704;10.004;2022-11-20T13:27:35;2.00;99.90
45066;DHT22;30830;53.704;10.004;2022-11-20T13:30:14;2.00;99.90
45066;DHT22;30830;53.704;10.004;2022-11-20T13:33:07;2.00;99.90
45066;DHT22;30830;53.704;10.004;2022-11-20T13:38:22;2.00;99.90
45066;DHT22;30830;53.704;10.004;2022-11-20T13:43:36;2.00;99.90
45066;DHT22;30830;53.704;10.004;2022-11-20T13:46:05;2.00;99.90
45066;DHT22;30830;53.704;10.004;2022-11-20T13:48:45;2.00;99.90
45066;DHT22;30830;53.704;10.004;2022-11-20T13:51:34;2.00;99.90
45066;DHT22;30830;53.704;10.004;2022-11-20T14:02:26;1.90;99.90
45066;DHT22;30830;53.704;10.004;2022-11-20T14:04:53;1.90;99.90
45066;DHT22;30830;53.704;10.004;2022-11-20T14:07:23;1.90;99.90
45066;DHT22;30830;53.704;10.004;2022-11-20T14:09:58;1.80;99.90
45066;DHT22;30830;53.704;10.004;2022-11-20T14:12:30;1.80;99.90
45066;DHT22;30830;53.704;10.004;2022-11-20T14:14:56;1.80;99.90
45066;DHT22;30830;53.704;10.004;2022-11-20T14:17:31;1.80;99.90
45066;DHT22;30830;53.704;10.004;2022-11-20T14:20:13;1.80;99.90
45066;DHT22;30830;53.704;10.004;2022-11-20T14:22:48;1.80;99.90
45066;DHT22;30830;53.704;10.004;2022-11-20T14:27:42;1.80;99.90
45066;DHT22;30830;53.704;10.004;2022-11-20T14:30:20;1.80;99.90
45066;DHT22;30830;53.704;10.004;2022-11-20T14:32:47;1.80;99.90
45066;DHT22;30830;53.704;10.004;2022-11-20T14:35:28;1.80;99.90
45066;DHT22;30830;53.704;10.004;2022-11-20T14:37:55;1.80;99.90
45066;DHT22;30830;53.704;10.004;2022-11-20T14:40:35;1.80;99.90
45066;DHT22;30830;53.704;10.004;2022-11-20T14:43:02;1.80;99.90
45066;DHT22;30830;53.704;10.004;2022-11-20T14:45:40;1.80;99.90
45066;DHT22;30830;53.704;10.004;2022-11-20T14:48:09;1.80;99.90
45066;DHT22;30830;53.704;10.004;2022-11-20T14:50:38;1.80;99.90
45066;DHT22;30830;53.704;10.004;2022-11-20T14:53:04;1.80;99.90
45066;DHT22;30830;53.704;10.004;2022-11-20T14:55:35;1.80;99.90
45066;DHT22;30830;53.704;10.004;2022-11-20T14:58:19;1.80;99.90
45066;DHT22;30830;53.704;10.004;2022-11-20T15:00:57;1.80;99.90
45066;DHT22;30830;53.704;10.004;2022-11-20T15:03:23;1.80;99.90
45066;DHT22;30830;53.704;10.004;2022-11-20T15:05:55;1.80;99.90
45066;DHT22;30830;53.704;10.004;2022-11-20T15:08:21;1.80;99.90
45066;DHT22;30830;53.704;10.004;2022-11-20T15:10:48;1.80;99.90
45066;DHT22;30830;53.704;10.004;2022-11-20T15:13:36;1.80;99.90
45066;DHT22;30830;53.704;10.004;2022-11-20T15:16:04;1.80;99.90
45066;DHT22;30830;53.704;10.004;2022-11-20T15:18:38;1.70;99.90
45066;DHT22;30830;53.704;10.004;2022-11-20T15:21:11;1.70;99.90
45066;DHT22;30830;53.704;10.004;2022-11-20T15:23:37;1.70;99.90
45066;DHT22;30830;53.704;10.004;2022-11-20T15:26:07;1.70;99.90
45066;DHT22;30830;53.704;10.004;2022-11-20T15:28:37;1.60;99.90
45066;DHT22;30830;53.704;10.004;2022-11-20T15:31:04;1.70;99.90
45066;DHT22;30830;53.704;10.004;2022-11-20T15:33:31;1.60;99.90
45066;DHT22;30830;53.704;10.004;2022-11-20T15:35:56;1.60;99.90
45066;DHT22;30830;53.704;10.004;2022-11-20T15:38:22;1.60;99.90
45066;DHT22;30830;53.704;10.004;2022-11-20T15:40:48;1.60;99.90
45066;DHT22;30830;53.704;10.004;2022-11-20T15:43:14;1.50;99.90
45066;DHT22;30830;53.704;10.004;2022-11-20T15:45:48;1.50;99.90
45066;DHT22;30830;53.704;10.004;2022-11-20T15:48:16;1.50;99.90
45066;DHT22;30830;53.704;10.004;2022-11-20T15:50:59;1.50;99.90
45066;DHT22;30830;53.704;10.004;2022-11-20T15:53:26;1.50;99.90
45066;DHT22;30830;53.704;10.004;2022-11-20T15:55:52;1.50;99.90
45066;DHT22;30830;53.704;10.004;2022-11-20T15:58:18;1.40;99.90
45066;DHT22;30830;53.704;10.004;2022-11-20T16:00:44;1.40;99.90
45066;DHT22;30830;53.704;10.004;2022-11-20T16:03:13;1.40;99.90
45066;DHT22;30830;53.704;10.004;2022-11-20T16:05:39;1.40;99.90
45066;DHT22;30830;53.704;10.004;2022-11-20T16:08:05;1.40;99.90
45066;DHT22;30830;53.704;10.004;2022-11-20T16:10:30;1.40;99.90
45066;DHT22;30830;53.704;10.004;2022-11-20T16:12:56;1.40;99.90
45066;DHT22;30830;53.704;10.004;2022-11-20T16:15:40;1.40;99.90
45066;DHT22;30830;53.704;10.004;2022-11-20T16:18:16;1.40;99.90
45066;DHT22;30830;53.704;10.004;2022-11-20T16:20:42;1.30;99.90
45066;DHT22;30830;53.704;10.004;2022-11-20T16:23:08;1.30;99.90
45066;DHT22;30830;53.704;10.004;2022-11-20T16:25:34;1.30;99.90
45066;DHT22;30830;53.704;10.004;2022-11-20T16:28:00;1.30;99.90
45066;DHT22;30830;53.704;10.004;2022-11-20T16:30:26;1.30;99.90
45066;DHT22;30830;53.704;10.004;2022-11-20T16:32:51;1.30;99.90
45066;DHT22;30830;53.704;10.004;2022-11-20T16:35:17;1.20;99.90
45066;DHT22;30830;53.704;10.004;2022-11-20T16:37:42;1.20;99.90
45066;DHT22;30830;53.704;10.004;2022-11-20T16:40:09;1.20;99.90
45066;DHT22;30830;53.704;10.004;2022-11-20T16:42:36;1.20;99.90
45066;DHT22;30830;53.704;10.004;2022-11-20T16:45:03;1.20;99.90
45066;DHT22;30830;53.704;10.004;2022-11-20T16:47:36;1.20;99.90
45066;DHT22;30830;53.704;10.004;2022-11-20T16:50:02;1.20;99.90
45066;DHT22;30830;53.704;10.004;2022-11-20T16:52:29;1.20;99.90
45066;DHT22;30830;53.704;10.004;2022-11-20T16:54:55;1.20;99.90
45066;DHT22;30830;53.704;10.004;2022-11-20T16:57:20;1.20;99.90
45066;DHT22;30830;53.704;10.004;2022-11-20T16:59:47;1.20;99.90
45066;DHT22;30830;53.704;10.004;2022-11-20T17:02:13;1.20;99.90
45066;DHT22;30830;53.704;10.004;2022-11-20T17:04:38;1.10;99.90
45066;DHT22;30830;53.704;10.004;2022-11-20T17:07:04;1.10;99.90
45066;DHT22;30830;53.704;10.004;2022-11-20T17:09:29;1.10;99.90
45066;DHT22;30830;53.704;10.004;2022-11-20T17:11:55;1.10;99.90
45066;DHT22;30830;53.704;10.004;2022-11-20T17:14:20;1.10;99.90
45066;DHT22;30830;53.704;10.004;2022-11-20T17:16:46;1.10;99.90
45066;DHT22;30830;53.704;10.004;2022-11-20T17:19:12;1.10;99.90
45066;DHT22;30830;53.704;10.004;2022-11-20T17:21:38;1.10;99.90
45066;DHT22;30830;53.704;10.004;2022-11-20T17:24:06;1.10;99.90